Thursday, July 31, 2014
15:39 UTC
  |  Log In   |  Register Free
Airport Search:

Madison Municipal Airport
(KIMS)

Madison Municipal Airport Diagram
No Airport Diagram Available

FAA data valid effective July 24, 2014 until September 18, 2014 (unless otherwise noted).

 
 
 
 
 
 
 
 
 
 
 
 
 
 

Current Aviation Weather for Madison Municipal Airport (KIMS)

The most recent METAR observation for KLOU was updated at: 1753 UTC
METAR Summary (Translated METAR)
KLOU
281753Z 29006KT 10SM BKN033 OVC046 23/14 A3000 RMK AO2 SLP156 T02280144 10239 20194 51007
KSDF
(4.7 nm SW from KLOU)
281756Z 30011KT 10SM BKN033 BKN043 23/15 A3000 RMK AO2 SLP153 T02330150 10244 20189 50004
TAF Summary (Translated TAF)
KSDF
(4.7 nm SW from KLOU)
311130Z 3112/0118 21004KT P6SM FEW050 FEW250 FM311500 24005KT P6SM SCT050 SCT250 FM010200 VRB03KT P6SM SKC FM011500 03004KT P6SM FEW050
KFTK
(24.1 nm SW from KLOU)
3109/0115 VRB06KT 9999 SCT060 QNH3003INS TX27/3121Z TN15/3111Z
  Airport Weather Conditions for KIMS

Current weather conditions are
not available for IMS


The nearest NOAA weather station
is at LOU, (33.3 nm SW from IMS)
  
 Current Weather at LOU
77° F
Fair
North winds at 0.0 mph
LOU NOAA Radar

Pressure: 30.11 in
Humidity: 60%
Wind: Calm
Dew Point: 62.1°F
Visibility: 10.00 mi


Airport Weather Forecast for KIMS

Translated METAR and TAF for KLOU
Translated METAR for KLOU (1533 UTC 31 July 2014)
found at http://aviationweather.gov/adds/metars/
 
METAR text: KLOU 311453Z 00000KT 10SM CLR 25/17 A3011 RMK AO2 SLP191 T02500167 51005
Conditions at: KLOU (LOUISVILLE/BOWMN, KY, US) observed 1453 UTC 31 July 2014
Temperature: 25.0°C (77°F)
Dewpoint: 16.7°C (62°F) [RH = 60%]
Pressure (altimeter): 30.11 inches Hg (1019.7 mb)
[Sea-level pressure: 1019.1 mb]
Winds: calm
Visibility: 10 or more miles (16+ km)
Ceiling: at least 12,000 feet AGL
Clouds: sky clear below 12,000 feet AGL
Weather: no significant weather observed at this time
Translated TAF for KLOU

There is no translated TAF available for this airport

Find All Airport Services Find A Hotel Find A Rental Car Find A Golf Course Find A Restaurant $100 Hamburger



FBO's on the Field
FBO Company Facility Photos Services Transportation Aviation Fuel Prices: Prices include tax
Catering Weather Repair Courtesy Rental Type 100LL JetA JetA+ MOGAS 8087
 
City of Madison

This FBO has not yet been rated
FS:Phillips66
Last Updated: Jul-23
Login to update fuel prices
SS:
Contact City of MadisonMore FBO Information
 
Add another FBO Facility Photos Catering Weather Repair Courtesy Rental Type 100LL JetA JetA+ MOGAS 8087
Services Transportation Aviation Fuel Prices: Prices include tax


GlobalAir.com Airport Resource Center model-print
model-print
model-print
model-print